Search for airport 
image banner adimage banner adimage banner ad
image banner ad

CA07 - Scheidel Ranch

Located in Pleasant Grove, United States

ICAO - CA07, IATA -

Data provided by Airmate  

General information

Coordinates: N38°50'25" W121°33'42"
Elevation is 28 feet MSL.
Magnetic variation is 16° East
View others Airports in California

Operational data

Special qualification required
Current time UTC:
Current local time:
Weather at : KSMF - Sacramento Intl ( 16 km )
METAR: KSMF 210853Z 16009KT 10SM SCT200 18/10 A2978 RMK AO2 SLP083 T01780100 51003
TAF: KSMF 210520Z 2106/2206 18011KT P6SM SKC
View NOTAMs / SUP AIP / TFR affecting this airport [VIEW]
Communications frequencies: [VIEW]

Runways:

RWY identifierQFULength (ft)Width (ft)SurfaceLDA (ft)
14210035OTHER
32210035OTHER

Airport contact information

Address: Pleasant Grove United States

Satellite view of CA07